KMCO/MCO METAR and TAF weather

Enter ICAO airport designator
Station Type Date Time Source
KMCO METAR 2022/06/30 01:53 UTC NOAA

KMCO 300153Z 02008KT 10SM FEW065 SCT140 BKN170 BKN300 28/22 A3016 RMK AO2 SLP213 T02780222


Station Type Date Time Source
KMCO Decoded METAR 2022/06/30 01:53 UTC NOAA

ORLANDO INTERNATIONAL AIRPORT , FL, United States (KMCO) 28-25N 81-20W 29M
Jun 29, 2022 - 09:53 PM EDT / 2022.06.30 0153 UTC
Wind: from the NNE (020 degrees) at 9 MPH (8 KT):0
Visibility: 10 mile(s):0
Sky conditions: mostly cloudy
Temperature: 82.0 F (27.8 C)
Dew Point: 72.0 F (22.2 C)
Relative Humidity: 71%
Pressure (altimeter): 30.16 in. Hg (1021 hPa)
ob: KMCO 300153Z 02008KT 10SM FEW065 SCT140 BKN170 BKN300 28/22 A3016 RMK AO2 SLP213 T02780222
cycle: 2

Station Type Date Time Source
KMCO TAF 2022/06/29 21:54 UTC NOAA

TAF
AMD KMCO 292052Z 2921/3024 11012KT P6SM VCSH SCT050 BKN250
FM300000 08004KT P6SM FEW030 BKN250
FM301600 13007KT P6SM VCSH SCT035 BKN050
FM301800 11007KT P6SM VCTS SCT030CB BKN080

Example: see airport list